Hovedside
METAR-TAF:

METAR-TAF

Lufthavner :

Haugesund lufthavn. Karmøy

Haugesund, Norge

breddegrad: 59-21N, lengdegrad: 005-13E, høyde over havet: 2 m

Gjeldene værobservasjon

Denne rapporten ble laget for 12 minutter siden, klokken 20:20 UTC
Vind 13 kt fra Nord
Temperatur 9°C
Luftfuktighet 71%
Trykk 1001 hPa
Sikt 10 km eller mer
Få skyer i en høyde av 1900 ft
Spredte skyer i en høyde av 13000 ft

METAR: ENHD 262020Z 35013KT 9999 FEW019 SCT130 09/04 Q1001

Tid: 22:32 (20:32 UTC)

Varsel

Denne rapporten ble laget for 3 timer og 32 minutter siden, klokken 17:00 UTC
Varsel gyldig fra 26. klokken 18 UTC til 26. klokken 22 UTC
Vind 12 kt fra Nord-nordvest
Sikt 10 km eller mer
Få skyer i en høyde av 2000 ft
Spredte skyer i en høyde av 4000 ft

TAF: ENHD 261700Z 2618/2622 34012KT 9999 FEW020 SCT040

Værobservasjoner og værvarsel for over 4000 flyplasser (METAR- og TAF-rapporter).

Tilgjengelige stasjoner er representert av de røde og gule prikkene på kartet.

Hold musepekeren over prikken for å se navnet på stasjonen.

Klikk så for å se værobservasjoner og -varsler.

For å forandre kartet kan du klikke på den grønne knappen med svart kryss for å zoome inn, på den grønne knappen med strek for å zoome ut, eller på de grønne pilene for å se tilstøtende kart.


METAR-TAF: